Shirahamamaru — JG4872 — position and weather

sailwx.info

Track history (hours):
 
Tides and Currents Weather Stations Pressure Air Temp Water Temp Dewpoint Dewpoint Depression Visibility Wind Speed Wind Dir Waves Ship Positions

Shirahamamaru

Last reported at 2016-Dec-04 05:31 UTC. Time now 2016-Dec-04 06:07 UTC.
Position N 35°13' E 139°44'.

Length 79 m; draft 3.2 m.

Type: Passenger vessel. MMSI: 431000239.

Date/timePositionNaut miles runAvg speedWind from/ knotsBaromVisibWave heightAir tempDewpointWater temp
2016-Dec-04 05:31N 35°13' E 139°44'2 2.0
2016-Dec-04 04:33N 35°12' E 139°46'1 0.7
2016-Dec-04 03:33N 35°12' E 139°46'2 1.6
2016-Dec-04 02:32N 35°11' E 139°47'2 2.4
2016-Dec-04 01:33N 35°13' E 139°45'2 2.3
2016-Dec-04 00:33N 35°11' E 139°47'3 2.8
2016-Dec-03 23:32N 35°13' E 139°44'2 1.7
2016-Dec-03 22:33N 35°12' E 139°46'2 1.6
2016-Dec-03 21:33N 35°13' E 139°44'1 0.1
2016-Dec-03 11:09N 35°13' E 139°43'6 9.6
2016-Dec-03 10:33N 35°10' E 139°49'3 3.2
2016-Dec-03 09:33N 35°12' E 139°46'1 1.3
2016-Dec-03 08:33N 35°11' E 139°47'3 2.5
2016-Dec-03 07:30N 35°13' E 139°44'3 2.9
2016-Dec-03 06:33N 35°11' E 139°47'3 2.9
2016-Dec-03 05:31N 35°13' E 139°44'2 2.1
2016-Dec-03 04:33N 35°12' E 139°46'1 0.7
2016-Dec-03 03:32N 35°12' E 139°45'2 2.2
2016-Dec-03 02:31N 35°11' E 139°47'3 3.5
2016-Dec-03 01:33N 35°13' E 139°44'3 3.0
2016-Dec-03 00:32N 35°11' E 139°48'3 3.0
2016-Dec-02 23:32N 35°13' E 139°44'2 1.8
2016-Dec-02 22:33N 35°12' E 139°46'1 1.4
2016-Dec-02 21:33N 35°13' E 139°45'2 0.1
2016-Dec-02 11:09N 35°13' E 139°43'6 9.6
2016-Dec-02 10:33N 35°10' E 139°49'4 3.5
2016-Dec-02 09:33N 35°12' E 139°45'2 1.8
2016-Dec-02 08:33N 35°11' E 139°47'2 2.4
2016-Dec-02 07:34N 35°13' E 139°45'3 2.6
2016-Dec-02 06:33N 35°11' E 139°47'1 0.1
2016-Dec-02 00:28N 35°11' E 139°48'4 4.0
2016-Dec-01 23:31N 35°13' E 139°44'2 1.8
2016-Dec-01 22:33N 35°12' E 139°46'2 1.8
2016-Dec-01 21:31N 35°13' E 139°44'5 0.4
2016-Dec-01 10:33N 35°10' E 139°49'3 3.4
2016-Dec-01 09:33N 35°13' E 139°46'2 1.7
2016-Dec-01 08:32N 35°11' E 139°47'4 3.7
2016-Dec-01 07:25N 35°13' E 139°43'4 4.6
2016-Dec-01 06:33N 35°11' E 139°47'2 1.8
2016-Dec-01 05:28N 35°10' E 139°49'6 6.4
2016-Dec-01 04:33N 35°13' E 139°43'1 0.8
2016-Dec-01 03:32N 35°13' E 139°44'5 5.1
2016-Dec-01 02:32N 35°10' E 139°49'5 4.7
2016-Dec-01 01:31N 35°13' E 139°44'3 2.9
2016-Dec-01 00:33N 35°11' E 139°47'2 2.4
2016-Nov-30 23:33N 35°13' E 139°45'2 1.5
2016-Nov-30 22:33N 35°12' E 139°46'1 1.2
2016-Nov-30 21:33N 35°12' E 139°45'2 0.2
2016-Nov-30 11:17N 35°13' E 139°43'6 7.7
2016-Nov-30 10:33N 35°10' E 139°49'3 3.1
2016-Nov-30 09:34N 35°12' E 139°46'1 1.3
2016-Nov-30 08:32N 35°11' E 139°47'3 2.6
2016-Nov-30 07:32N 35°13' E 139°44'3 2.6
2016-Nov-30 06:33N 35°11' E 139°47'2 1.8
2016-Nov-30 05:28N 35°10' E 139°49'6 6.4
2016-Nov-30 04:33N 35°13' E 139°43'1 0.8
2016-Nov-30 03:31N 35°13' E 139°44'5 4.6
2016-Nov-30 02:25N 35°10' E 139°49'5 5.3
2016-Nov-30 01:33N 35°13' E 139°44'3 2.6
2016-Nov-30 00:33N 35°11' E 139°47'3 2.6
2016-Nov-29 23:33N 35°13' E 139°44'2 1.5
2016-Nov-29 22:34N 35°12' E 139°46'1 1.2
2016-Nov-29 21:33N 35°13' E 139°45'2 0.2
2016-Nov-29 11:12N 35°13' E 139°43'6 8.9
2016-Nov-29 10:33N 35°10' E 139°49'3 3.3
2016-Nov-29 09:33N 35°12' E 139°45'2 1.5
2016-Nov-29 08:33N 35°11' E 139°47'2 2.0
2016-Nov-29 07:33N 35°13' E 139°45'2 2.1
2016-Nov-29 06:33N 35°11' E 139°47'2 1.8
2016-Nov-29 05:31N 35°10' E 139°49'6 6.2
2016-Nov-29 04:33N 35°13' E 139°43'1 0.8
2016-Nov-29 03:31N 35°13' E 139°44'5 5.3
2016-Nov-29 02:33N 35°10' E 139°49'5 4.6
2016-Nov-29 01:33N 35°13' E 139°44'3 3.0
2016-Nov-29 00:33N 35°11' E 139°47'3 2.9
2016-Nov-28 23:33N 35°13' E 139°44'2 1.9
2016-Nov-28 22:33N 35°12' E 139°46'2 1.7
2016-Nov-28 21:33N 35°13' E 139°45'2 0.1
2016-Nov-28 11:08N 35°13' E 139°43'610.1
2016-Nov-28 10:33N 35°10' E 139°49'3 3.4
2016-Nov-28 09:33N 35°12' E 139°45'2 1.8
2016-Nov-28 08:33N 35°11' E 139°47'3 2.8
2016-Nov-28 07:32N 35°13' E 139°44'3 3.4
2016-Nov-28 06:33N 35°10' E 139°47'2 1.6
2016-Nov-28 05:33N 35°10' E 139°49'6 5.9
2016-Nov-28 04:33N 35°13' E 139°43'1 0.7
2016-Nov-28 03:32N 35°13' E 139°44'5 5.3
2016-Nov-28 02:33N 35°10' E 139°49'4 4.4
2016-Nov-28 01:33N 35°13' E 139°45'2 2.4
2016-Nov-28 00:33N 35°11' E 139°47'3 2.5
2016-Nov-27 23:33N 35°13' E 139°45'2 1.5
2016-Nov-27 22:33N 35°12' E 139°46'2 1.7
2016-Nov-27 21:33N 35°13' E 139°44'1 0.1
2016-Nov-27 11:08N 35°13' E 139°43'6 9.7
2016-Nov-27 10:33N 35°10' E 139°49'3 3.1
2016-Nov-27 09:33N 35°12' E 139°46'1 1.5
2016-Nov-27 08:33N 35°11' E 139°47'3 2.8
2016-Nov-27 07:31N 35°13' E 139°44'3 3.2
2016-Nov-27 06:32N 35°11' E 139°47'3 2.6
2016-Nov-27 05:33N 35°13' E 139°45'1 1.4
2016-Nov-27 04:33N 35°12' E 139°46'0 0.5
2016-Nov-27 03:33N 35°12' E 139°46'2 2.0
2016-Nov-27 02:33N 35°11' E 139°48'3 3.3
2016-Nov-27 01:30N 35°13' E 139°44'3 3.0
2016-Nov-27 00:33N 35°11' E 139°47'3 2.6
2016-Nov-26 23:32N 35°13' E 139°44'2 1.7
2016-Nov-26 22:33N 35°12' E 139°46'1 1.4
2016-Nov-26 21:33N 35°13' E 139°45'2 0.2
2016-Nov-26 11:08N 35°13' E 139°43'6 9.7
2016-Nov-26 10:33N 35°10' E 139°49'3 3.2
2016-Nov-26 09:33N 35°12' E 139°46'1 1.5
2016-Nov-26 08:33N 35°11' E 139°47'2 2.0
2016-Nov-26 07:33N 35°12' E 139°45'2 2.4
2016-Nov-26 06:32N 35°11' E 139°47'3 3.1
2016-Nov-26 05:31N 35°13' E 139°44'2 2.0
2016-Nov-26 04:33N 35°12' E 139°46'1 0.8
2016-Nov-26 03:33N 35°12' E 139°45'2 1.7
2016-Nov-26 02:33N 35°11' E 139°47'3 2.6
2016-Nov-26 01:33N 35°13' E 139°44'3 2.7
2016-Nov-26 00:33N 35°11' E 139°47'3 2.8
2016-Nov-25 23:32N 35°13' E 139°44'2 1.8
2016-Nov-25 22:33N 35°12' E 139°46'1 1.4
2016-Nov-25 21:32N 35°13' E 139°45'1 0.1
2016-Nov-25 11:12N 35°13' E 139°43'6 8.9
2016-Nov-25 10:33N 35°10' E 139°49'3 3.4
2016-Nov-25 09:33N 35°12' E 139°46'1 1.5
2016-Nov-25 08:33N 35°12' E 139°47'2 2.2
2016-Nov-25 07:33N 35°13' E 139°45'2 2.3
2016-Nov-25 06:33N 35°11' E 139°47'2 1.9
2016-Nov-25 05:32N 35°10' E 139°49'6 6.0
2016-Nov-25 04:33N 35°13' E 139°43'0 0.4
2016-Nov-25 03:33N 35°13' E 139°43'6 5.1
2016-Nov-25 02:29N 35°10' E 139°49'5 5.0
2016-Nov-25 01:33N 35°13' E 139°44'3 2.7
2016-Nov-25 00:33N 35°11' E 139°47'3 2.6
2016-Nov-24 23:32N 35°13' E 139°44'2 1.8
2016-Nov-24 22:33N 35°12' E 139°46'2 1.6
2016-Nov-24 21:32N 35°13' E 139°44'1 0.1
2016-Nov-24 11:13N 35°13' E 139°43'6 8.7
2016-Nov-24 10:33N 35°10' E 139°49'4 3.6
2016-Nov-24 09:33N 35°12' E 139°46'2 1.7
2016-Nov-24 08:33N 35°11' E 139°47'3 2.9
2016-Nov-24 07:31N 35°13' E 139°44'3 3.6
2016-Nov-24 06:33N 35°10' E 139°47'2 1.7
2016-Nov-24 05:32N 35°10' E 139°49'  
Track history (hours):
 
Tides and Currents Weather Stations Pressure Air Temp Water Temp Dewpoint Dewpoint Depression Visibility Wind Speed Wind Dir Waves Ship Positions

Shirahamamaru

Last reported at 2016-Dec-04 05:31 UTC. Time now 2016-Dec-04 06:07 UTC.
Position N 35°13' E 139°44'.

Length 79 m; draft 3.2 m.

Type: Passenger vessel. MMSI: 431000239.

Date/timePositionNaut miles runAvg speedWind from/ knotsBaromVisibWave heightAir tempDewpointWater temp
2016-Dec-04 05:31N 35°13' E 139°44'2 2.0
2016-Dec-04 04:33N 35°12' E 139°46'1 0.7
2016-Dec-04 03:33N 35°12' E 139°46'2 1.6
2016-Dec-04 02:32N 35°11' E 139°47'2 2.4
2016-Dec-04 01:33N 35°13' E 139°45'2 2.3
2016-Dec-04 00:33N 35°11' E 139°47'3 2.8
2016-Dec-03 23:32N 35°13' E 139°44'2 1.7
2016-Dec-03 22:33N 35°12' E 139°46'2 1.6
2016-Dec-03 21:33N 35°13' E 139°44'1 0.1
2016-Dec-03 11:09N 35°13' E 139°43'6 9.6
2016-Dec-03 10:33N 35°10' E 139°49'3 3.2
2016-Dec-03 09:33N 35°12' E 139°46'1 1.3
2016-Dec-03 08:33N 35°11' E 139°47'3 2.5
2016-Dec-03 07:30N 35°13' E 139°44'3 2.9
2016-Dec-03 06:33N 35°11' E 139°47'3 2.9
2016-Dec-03 05:31N 35°13' E 139°44'2 2.1
2016-Dec-03 04:33N 35°12' E 139°46'1 0.7
2016-Dec-03 03:32N 35°12' E 139°45'2 2.2
2016-Dec-03 02:31N 35°11' E 139°47'3 3.5
2016-Dec-03 01:33N 35°13' E 139°44'3 3.0
2016-Dec-03 00:32N 35°11' E 139°48'3 3.0
2016-Dec-02 23:32N 35°13' E 139°44'2 1.8
2016-Dec-02 22:33N 35°12' E 139°46'1 1.4
2016-Dec-02 21:33N 35°13' E 139°45'2 0.1
2016-Dec-02 11:09N 35°13' E 139°43'6 9.6
2016-Dec-02 10:33N 35°10' E 139°49'4 3.5
2016-Dec-02 09:33N 35°12' E 139°45'2 1.8
2016-Dec-02 08:33N 35°11' E 139°47'2 2.4
2016-Dec-02 07:34N 35°13' E 139°45'3 2.6
2016-Dec-02 06:33N 35°11' E 139°47'1 0.1
2016-Dec-02 00:28N 35°11' E 139°48'4 4.0
2016-Dec-01 23:31N 35°13' E 139°44'2 1.8
2016-Dec-01 22:33N 35°12' E 139°46'2 1.8
2016-Dec-01 21:31N 35°13' E 139°44'5 0.4
2016-Dec-01 10:33N 35°10' E 139°49'3 3.4
2016-Dec-01 09:33N 35°13' E 139°46'2 1.7
2016-Dec-01 08:32N 35°11' E 139°47'4 3.7
2016-Dec-01 07:25N 35°13' E 139°43'4 4.6
2016-Dec-01 06:33N 35°11' E 139°47'2 1.8
2016-Dec-01 05:28N 35°10' E 139°49'6 6.4
2016-Dec-01 04:33N 35°13' E 139°43'1 0.8
2016-Dec-01 03:32N 35°13' E 139°44'5 5.1
2016-Dec-01 02:32N 35°10' E 139°49'5 4.7
2016-Dec-01 01:31N 35°13' E 139°44'3 2.9
2016-Dec-01 00:33N 35°11' E 139°47'2 2.4
2016-Nov-30 23:33N 35°13' E 139°45'2 1.5
2016-Nov-30 22:33N 35°12' E 139°46'1 1.2
2016-Nov-30 21:33N 35°12' E 139°45'2 0.2
2016-Nov-30 11:17N 35°13' E 139°43'6 7.7
2016-Nov-30 10:33N 35°10' E 139°49'3 3.1
2016-Nov-30 09:34N 35°12' E 139°46'1 1.3
2016-Nov-30 08:32N 35°11' E 139°47'3 2.6
2016-Nov-30 07:32N 35°13' E 139°44'3 2.6
2016-Nov-30 06:33N 35°11' E 139°47'2 1.8
2016-Nov-30 05:28N 35°10' E 139°49'6 6.4
2016-Nov-30 04:33N 35°13' E 139°43'1 0.8
2016-Nov-30 03:31N 35°13' E 139°44'5 4.6
2016-Nov-30 02:25N 35°10' E 139°49'5 5.3
2016-Nov-30 01:33N 35°13' E 139°44'3 2.6
2016-Nov-30 00:33N 35°11' E 139°47'3 2.6
2016-Nov-29 23:33N 35°13' E 139°44'2 1.5
2016-Nov-29 22:34N 35°12' E 139°46'1 1.2
2016-Nov-29 21:33N 35°13' E 139°45'2 0.2
2016-Nov-29 11:12N 35°13' E 139°43'6 8.9
2016-Nov-29 10:33N 35°10' E 139°49'3 3.3
2016-Nov-29 09:33N 35°12' E 139°45'2 1.5
2016-Nov-29 08:33N 35°11' E 139°47'2 2.0
2016-Nov-29 07:33N 35°13' E 139°45'2 2.1
2016-Nov-29 06:33N 35°11' E 139°47'2 1.8
2016-Nov-29 05:31N 35°10' E 139°49'6 6.2
2016-Nov-29 04:33N 35°13' E 139°43'1 0.8
2016-Nov-29 03:31N 35°13' E 139°44'5 5.3
2016-Nov-29 02:33N 35°10' E 139°49'5 4.6
2016-Nov-29 01:33N 35°13' E 139°44'3 3.0
2016-Nov-29 00:33N 35°11' E 139°47'3 2.9
2016-Nov-28 23:33N 35°13' E 139°44'2 1.9
2016-Nov-28 22:33N 35°12' E 139°46'2 1.7
2016-Nov-28 21:33N 35°13' E 139°45'2 0.1
2016-Nov-28 11:08N 35°13' E 139°43'610.1
2016-Nov-28 10:33N 35°10' E 139°49'3 3.4
2016-Nov-28 09:33N 35°12' E 139°45'2 1.8
2016-Nov-28 08:33N 35°11' E 139°47'3 2.8
2016-Nov-28 07:32N 35°13' E 139°44'3 3.4
2016-Nov-28 06:33N 35°10' E 139°47'2 1.6
2016-Nov-28 05:33N 35°10' E 139°49'6 5.9
2016-Nov-28 04:33N 35°13' E 139°43'1 0.7
2016-Nov-28 03:32N 35°13' E 139°44'5 5.3
2016-Nov-28 02:33N 35°10' E 139°49'4 4.4
2016-Nov-28 01:33N 35°13' E 139°45'2 2.4
2016-Nov-28 00:33N 35°11' E 139°47'3 2.5
2016-Nov-27 23:33N 35°13' E 139°45'2 1.5
2016-Nov-27 22:33N 35°12' E 139°46'2 1.7
2016-Nov-27 21:33N 35°13' E 139°44'1 0.1
2016-Nov-27 11:08N 35°13' E 139°43'6 9.7
2016-Nov-27 10:33N 35°10' E 139°49'3 3.1
2016-Nov-27 09:33N 35°12' E 139°46'1 1.5
2016-Nov-27 08:33N 35°11' E 139°47'3 2.8
2016-Nov-27 07:31N 35°13' E 139°44'3 3.2
2016-Nov-27 06:32N 35°11' E 139°47'3 2.6
2016-Nov-27 05:33N 35°13' E 139°45'1 1.4
2016-Nov-27 04:33N 35°12' E 139°46'0 0.5
2016-Nov-27 03:33N 35°12' E 139°46'2 2.0
2016-Nov-27 02:33N 35°11' E 139°48'3 3.3
2016-Nov-27 01:30N 35°13' E 139°44'3 3.0
2016-Nov-27 00:33N 35°11' E 139°47'3 2.6
2016-Nov-26 23:32N 35°13' E 139°44'2 1.7
2016-Nov-26 22:33N 35°12' E 139°46'1 1.4
2016-Nov-26 21:33N 35°13' E 139°45'2 0.2
2016-Nov-26 11:08N 35°13' E 139°43'6 9.7
2016-Nov-26 10:33N 35°10' E 139°49'3 3.2
2016-Nov-26 09:33N 35°12' E 139°46'1 1.5
2016-Nov-26 08:33N 35°11' E 139°47'2 2.0
2016-Nov-26 07:33N 35°12' E 139°45'2 2.4
2016-Nov-26 06:32N 35°11' E 139°47'3 3.1
2016-Nov-26 05:31N 35°13' E 139°44'2 2.0
2016-Nov-26 04:33N 35°12' E 139°46'1 0.8
2016-Nov-26 03:33N 35°12' E 139°45'2 1.7
2016-Nov-26 02:33N 35°11' E 139°47'3 2.6
2016-Nov-26 01:33N 35°13' E 139°44'3 2.7
2016-Nov-26 00:33N 35°11' E 139°47'3 2.8
2016-Nov-25 23:32N 35°13' E 139°44'2 1.8
2016-Nov-25 22:33N 35°12' E 139°46'1 1.4
2016-Nov-25 21:32N 35°13' E 139°45'1 0.1
2016-Nov-25 11:12N 35°13' E 139°43'6 8.9
2016-Nov-25 10:33N 35°10' E 139°49'3 3.4
2016-Nov-25 09:33N 35°12' E 139°46'1 1.5
2016-Nov-25 08:33N 35°12' E 139°47'2 2.2
2016-Nov-25 07:33N 35°13' E 139°45'2 2.3
2016-Nov-25 06:33N 35°11' E 139°47'2 1.9
2016-Nov-25 05:32N 35°10' E 139°49'6 6.0
2016-Nov-25 04:33N 35°13' E 139°43'0 0.4
2016-Nov-25 03:33N 35°13' E 139°43'6 5.1
2016-Nov-25 02:29N 35°10' E 139°49'5 5.0
2016-Nov-25 01:33N 35°13' E 139°44'3 2.7
2016-Nov-25 00:33N 35°11' E 139°47'3 2.6
2016-Nov-24 23:32N 35°13' E 139°44'2 1.8
2016-Nov-24 22:33N 35°12' E 139°46'2 1.6
2016-Nov-24 21:32N 35°13' E 139°44'1 0.1
2016-Nov-24 11:13N 35°13' E 139°43'6 8.7
2016-Nov-24 10:33N 35°10' E 139°49'4 3.6
2016-Nov-24 09:33N 35°12' E 139°46'2 1.7
2016-Nov-24 08:33N 35°11' E 139°47'3 2.9
2016-Nov-24 07:31N 35°13' E 139°44'3 3.6
2016-Nov-24 06:33N 35°10' E 139°47'2 1.7
2016-Nov-24 05:32N 35°10' E 139°49'  

Dump ship's entire track history